Missouriborg — PFBI — position and weather

sailwx.info

Track history (hours):
 
Tides and Currents Weather Stations Pressure Air Temp Water Temp Dewpoint Dewpoint Depression Visibility Wind Speed Wind Dir Waves Ship Positions

Missouriborg

Last reported at 2017-Nov-05 22:04 UTC. Time now 2017-Nov-19 05:02 UTC.
Position N 36°00' W 005°16'.
Warning: this ship's position is 13 days out of date.

Length 135 m; draft 7.3 m.

Type: Cargo ship. MMSI: 245170000.

Date/timePositionNaut miles runAvg speedWind from/ knotsBaromVisibWave heightAir tempDewpointWater temp
2017-Nov-05 22:04N 36°00' W 005°16'214.4
2017-Nov-05 21:57N 35°60' W 005°19'25310.1
2017-Nov-04 20:47N 38°05' W 009°55'311.7
2017-Nov-04 20:30N 38°08' W 009°55'611.8
2017-Nov-04 20:00N 38°14' W 009°57'612.1
2017-Nov-04 19:30N 38°19' W 009°58'612.4
2017-Nov-04 19:00N 38°25' W 009°60'612.4
2017-Nov-04 18:30N 38°31' W 010°02'612.0
2017-Nov-04 18:00N 38°37' W 010°04'611.8
2017-Nov-04 17:30N 38°43' W 010°06'611.5
2017-Nov-04 17:00N 38°49' W 010°06'611.4
2017-Nov-04 16:30N 38°55' W 010°06'611.7
2017-Nov-04 16:00N 39°00' W 010°05'611.5
2017-Nov-04 15:30N 39°06' W 010°05'611.1
2017-Nov-04 15:00N 39°12' W 010°05'611.7
2017-Nov-04 14:30N 39°18' W 010°06'611.8
2017-Nov-04 14:00N 39°23' W 010°06'48411.1
2017-Nov-02 18:35N 47°10' W 007°09'511.9
2017-Nov-02 18:11N 47°14' W 007°06'311.4
2017-Nov-02 17:57N 47°17' W 007°05'511.7
2017-Nov-02 17:30N 47°22' W 007°01'611.3
2017-Nov-02 16:56N 47°27' W 006°56'511.1
2017-Nov-02 16:30N 47°31' W 006°52'611.8
2017-Nov-02 16:00N 47°36' W 006°48'711.8
2017-Nov-02 15:27N 47°42' W 006°43'511.2
2017-Nov-02 15:00N 47°46' W 006°40'611.4
2017-Nov-02 14:30N 47°51' W 006°36'610.9
2017-Nov-02 13:56N 47°57' W 006°32'511.0
2017-Nov-02 13:29N 48°01' W 006°28'510.4
2017-Nov-02 12:58N 48°06' W 006°25'510.5
2017-Nov-02 12:29N 48°11' W 006°22'610.6
2017-Nov-02 11:56N 48°16' W 006°18'510.8
2017-Nov-02 11:30N 48°20' W 006°15'611.0
2017-Nov-02 10:59N 48°25' W 006°11'711.3
2017-Nov-02 10:20N 48°32' W 006°06'611.6
2017-Nov-02 09:50N 48°37' W 006°02'511.9
2017-Nov-02 09:27N 48°41' W 005°58'712.4
2017-Nov-02 08:55N 48°46' W 005°53'512.7
2017-Nov-02 08:30N 48°51' W 005°49'612.6
2017-Nov-02 08:00N 48°55' W 005°41'713.1
2017-Nov-02 07:27N 48°59' W 005°32'5111.4
2017-Nov-02 02:58N 49°25' W 004°24'810.2
2017-Nov-02 02:11N 49°29' W 004°14'5711.8
2017-Nov-01 21:22N 49°58' W 002°57'1111.6
2017-Nov-01 20:26N 50°01' W 002°42'20411.1
2017-Nov-01 02:00N 51°21' E 002°15'510.9
2017-Nov-01 01:31N 51°22' E 002°23'611.0
2017-Nov-01 01:00N 51°23' E 002°32'510.8
2017-Nov-01 00:30N 51°23' E 002°41'5 9.7
2017-Nov-01 00:01N 51°22' E 002°48'510.1
2017-Oct-31 23:30N 51°23' E 002°56'5 9.6
2017-Oct-31 23:00N 51°25' E 003°03'5 9.7
2017-Oct-31 22:30N 51°24' E 003°11'5 9.8
2017-Oct-31 22:00N 51°24' E 003°19'5 9.5
2017-Oct-31 21:30N 51°25' E 003°27'5 9.1
2017-Oct-31 21:00N 51°26' E 003°34'4 8.1
2017-Oct-31 20:30N 51°26' E 003°40'5 9.4
2017-Oct-31 20:00N 51°22' E 003°44'4 7.8
2017-Oct-31 19:30N 51°20' E 003°49'0 0.3
2017-Oct-31 19:00N 51°20' E 003°49'0 0.2
2017-Oct-31 18:31N 51°20' E 003°49'1 1.1
2017-Oct-31 18:01N 51°19' E 003°50'0 0.4
2017-Oct-31 17:30N 51°19' E 003°50'2 4.6
2017-Oct-31 17:01N 51°17' E 003°50'3 5.9
2017-Oct-31 16:30N 51°14' E 003°49'3 6.7
2017-Oct-31 16:00N 51°11' E 003°48'4 7.1
2017-Oct-31 15:30N 51°07' E 003°46'1 2.4
2017-Oct-31 14:58N 51°06' E 003°45'0 0.0
2017-Oct-31 14:30N 51°06' E 003°45'0 0.0
2017-Oct-31 13:58N 51°06' E 003°45'0 0.0
2017-Oct-31 13:28N 51°06' E 003°45'0 0.0
2017-Oct-31 12:58N 51°06' E 003°45'0 0.0
2017-Oct-31 12:30N 51°06' E 003°45'0 0.0
2017-Oct-31 12:00N 51°06' E 003°45'0 0.0
2017-Oct-31 11:30N 51°06' E 003°45'0 0.0
2017-Oct-31 11:00N 51°06' E 003°45'0 0.0
2017-Oct-31 10:30N 51°06' E 003°45'0 0.0
2017-Oct-31 09:59N 51°06' E 003°45'0 0.0
2017-Oct-31 09:29N 51°06' E 003°45'0 0.0
2017-Oct-31 08:59N 51°06' E 003°45'0 0.0
2017-Oct-31 08:29N 51°06' E 003°45'0 0.0
2017-Oct-31 07:55N 51°06' E 003°45'0 0.0
2017-Oct-31 07:28N 51°06' E 003°45'0 0.0
2017-Oct-31 06:58N 51°06' E 003°45'0 0.0
2017-Oct-31 06:28N 51°06' E 003°45'0 0.0
2017-Oct-31 05:58N 51°06' E 003°45'0 0.0
2017-Oct-31 05:30N 51°06' E 003°45'0 0.0
2017-Oct-31 04:57N 51°06' E 003°45'0 0.0
2017-Oct-31 04:30N 51°06' E 003°45'0 0.0
2017-Oct-31 04:00N 51°06' E 003°45'0 0.0
2017-Oct-31 03:30N 51°06' E 003°45'0 0.0
2017-Oct-31 02:59N 51°06' E 003°45'0 0.0
2017-Oct-31 02:29N 51°06' E 003°45'0 0.0
2017-Oct-31 01:59N 51°06' E 003°45'0 0.0
2017-Oct-31 01:29N 51°06' E 003°45'0 0.0
2017-Oct-31 00:52N 51°06' E 003°45'0 0.0
2017-Oct-31 00:28N 51°06' E 003°45'0 0.0
2017-Oct-30 23:58N 51°06' E 003°45'0 0.0
2017-Oct-30 23:28N 51°06' E 003°45'0 0.0
2017-Oct-30 22:55N 51°06' E 003°45'0 0.0
2017-Oct-30 22:30N 51°06' E 003°45'0 0.0
2017-Oct-30 22:00N 51°06' E 003°45'0 0.0
2017-Oct-30 21:30N 51°06' E 003°45'0 0.0
2017-Oct-30 21:00N 51°06' E 003°45'0 0.0
2017-Oct-30 20:29N 51°06' E 003°45'0 0.0
2017-Oct-30 19:56N 51°06' E 003°45'0 0.0
2017-Oct-30 19:29N 51°06' E 003°45'0 0.0
2017-Oct-30 18:59N 51°06' E 003°45'0 0.0
2017-Oct-30 18:29N 51°06' E 003°45'0 0.0
2017-Oct-30 17:55N 51°06' E 003°45'0 0.0
2017-Oct-30 17:28N 51°06' E 003°45'0 0.0
2017-Oct-30 16:58N 51°06' E 003°45'0 0.0
2017-Oct-30 16:28N 51°06' E 003°45'0 0.0
2017-Oct-30 15:57N 51°06' E 003°45'0 0.0
2017-Oct-30 15:30N 51°06' E 003°45'0 0.0
2017-Oct-30 15:00N 51°06' E 003°45'0 0.0
2017-Oct-30 14:00N 51°06' E 003°45'0 0.0
2017-Oct-30 13:30N 51°06' E 003°45'0 0.0
2017-Oct-30 12:59N 51°06' E 003°45'0 0.0
2017-Oct-30 12:29N 51°06' E 003°45'0 0.0
2017-Oct-30 11:59N 51°06' E 003°45'0 0.0
2017-Oct-30 11:29N 51°06' E 003°45'0 0.0
2017-Oct-30 10:58N 51°06' E 003°45'0 0.0
2017-Oct-30 10:28N 51°06' E 003°45'0 0.0
2017-Oct-30 09:58N 51°06' E 003°45'0 0.0
2017-Oct-30 09:28N 51°06' E 003°45'0 0.0
2017-Oct-30 09:00N 51°06' E 003°45'0 0.0
2017-Oct-30 08:30N 51°06' E 003°45'0 0.0
2017-Oct-30 07:54N 51°06' E 003°45'0 0.0
2017-Oct-30 07:30N 51°06' E 003°45'0 0.0
2017-Oct-30 07:00N 51°06' E 003°45'0 0.0
2017-Oct-30 06:30N 51°06' E 003°45'0 0.0
2017-Oct-30 05:59N 51°06' E 003°45'0 0.0
2017-Oct-30 05:29N 51°06' E 003°45'0 0.0
2017-Oct-30 04:59N 51°06' E 003°45'0 0.0
2017-Oct-30 04:29N 51°06' E 003°45'0 0.0
2017-Oct-30 03:58N 51°06' E 003°45'0 0.0
2017-Oct-30 03:28N 51°06' E 003°45'0 0.0
2017-Oct-30 02:58N 51°06' E 003°45'0 0.0
2017-Oct-30 02:28N 51°06' E 003°45'0 0.0
2017-Oct-30 02:00N 51°06' E 003°45'0 0.0
2017-Oct-30 01:30N 51°06' E 003°45'0 0.0
2017-Oct-30 01:00N 51°06' E 003°45'0 0.0
2017-Oct-30 00:30N 51°06' E 003°45'0 0.0
2017-Oct-30 00:00N 51°06' E 003°45'0 0.0
2017-Oct-29 23:29N 51°06' E 003°45'0 0.0
2017-Oct-29 22:59N 51°06' E 003°45'0 0.0
2017-Oct-29 22:29N 51°06' E 003°45'0 0.0
2017-Oct-29 21:59N 51°06' E 003°45'0 0.0
2017-Oct-29 21:29N 51°06' E 003°45'0 0.0
2017-Oct-29 20:58N 51°06' E 003°45'0 0.0
2017-Oct-29 20:28N 51°06' E 003°45'0 0.0
2017-Oct-29 19:58N 51°06' E 003°45'0 0.0
2017-Oct-29 19:28N 51°06' E 003°45'0 0.0
2017-Oct-29 19:01N 51°06' E 003°45'0 0.0
2017-Oct-29 18:30N 51°06' E 003°45'0 0.0
2017-Oct-29 18:00N 51°06' E 003°45'0 0.0
2017-Oct-29 17:30N 51°06' E 003°45'0 0.0
2017-Oct-29 17:00N 51°06' E 003°45'0 0.0
2017-Oct-29 16:29N 51°06' E 003°45'0 0.0
2017-Oct-29 15:59N 51°06' E 003°45'0 0.0
2017-Oct-29 15:29N 51°06' E 003°45'0 0.0
2017-Oct-29 14:59N 51°06' E 003°45'0 0.0
2017-Oct-29 14:29N 51°06' E 003°45'0 0.0
2017-Oct-29 13:58N 51°06' E 003°45'0 0.0
2017-Oct-29 13:28N 51°06' E 003°45'0 0.0
2017-Oct-29 12:58N 51°06' E 003°45'0 0.0
2017-Oct-29 12:28N 51°06' E 003°45'0 0.0
2017-Oct-29 12:00N 51°06' E 003°45'0 0.0
2017-Oct-29 11:30N 51°06' E 003°45'0 0.0
2017-Oct-29 10:57N 51°06' E 003°45'0 0.0
2017-Oct-29 10:30N 51°06' E 003°45'0 0.0
2017-Oct-29 10:00N 51°06' E 003°45'0 0.0
2017-Oct-29 09:29N 51°06' E 003°45'0 0.0
2017-Oct-29 08:59N 51°06' E 003°45'0 0.0
2017-Oct-29 08:29N 51°06' E 003°45'0 0.0
2017-Oct-29 07:59N 51°06' E 003°45'0 0.0
2017-Oct-29 07:29N 51°06' E 003°45'0 0.0
2017-Oct-29 06:58N 51°06' E 003°45'0 0.0
2017-Oct-29 06:28N 51°06' E 003°45'0 0.0
2017-Oct-29 05:58N 51°06' E 003°45'0 0.0
2017-Oct-29 05:28N 51°06' E 003°45'0 0.0
2017-Oct-29 05:00N 51°06' E 003°45'0 0.0
2017-Oct-29 04:30N 51°06' E 003°45'0 0.0
2017-Oct-29 04:00N 51°06' E 003°45'0 0.0
2017-Oct-28 18:59N 51°06' E 003°45'0 0.0
2017-Oct-28 18:29N 51°06' E 003°45'0 0.0
2017-Oct-28 17:59N 51°06' E 003°45'0 0.0
2017-Oct-28 17:29N 51°06' E 003°45'0 0.0
2017-Oct-28 16:55N 51°06' E 003°45'0 0.0
2017-Oct-28 16:28N 51°06' E 003°45'0 0.0
2017-Oct-28 15:52N 51°06' E 003°45'0 0.0
2017-Oct-28 15:28N 51°06' E 003°45'0 0.0
2017-Oct-28 15:00N 51°06' E 003°45'0 0.0
2017-Oct-28 14:30N 51°06' E 003°45'0 0.0
2017-Oct-28 14:00N 51°06' E 003°45'0 0.0
2017-Oct-28 13:27N 51°06' E 003°45'0 0.0
2017-Oct-28 13:00N 51°06' E 003°45'0 0.0
2017-Oct-28 12:29N 51°06' E 003°45'0 0.0
2017-Oct-28 11:59N 51°06' E 003°45'0 0.0
2017-Oct-28 11:29N 51°06' E 003°45'0 0.0
2017-Oct-28 10:59N 51°06' E 003°45'0 0.0
2017-Oct-28 10:29N 51°06' E 003°45'0 0.0
2017-Oct-28 09:58N 51°06' E 003°45'0 0.0
2017-Oct-28 09:28N 51°06' E 003°45'0 0.0
2017-Oct-28 08:59N 51°06' E 003°45'0 0.0
2017-Oct-28 08:28N 51°06' E 003°45'0 0.0
2017-Oct-28 08:00N 51°06' E 003°45'0 0.0
2017-Oct-28 07:30N 51°06' E 003°45'0 0.0
2017-Oct-28 07:00N 51°06' E 003°45'0 0.0
2017-Oct-28 06:30N 51°06' E 003°45'0 0.0
2017-Oct-28 05:59N 51°06' E 003°45'0 0.0
2017-Oct-28 05:29N 51°06' E 003°45'0 0.0
2017-Oct-28 04:59N 51°06' E 003°45'0 0.0
2017-Oct-28 04:29N 51°06' E 003°45'0 0.0
2017-Oct-28 03:59N 51°06' E 003°45'0 0.0
2017-Oct-28 03:28N 51°06' E 003°45'0 0.0
2017-Oct-28 02:58N 51°06' E 003°45'0 0.0
2017-Oct-28 02:28N 51°06' E 003°45'0 0.0
2017-Oct-28 01:58N 51°06' E 003°45'0 0.0
2017-Oct-28 01:28N 51°06' E 003°45'0 0.0
2017-Oct-28 00:57N 51°06' E 003°45'0 0.0
2017-Oct-28 00:30N 51°06' E 003°45'0 0.0
2017-Oct-28 00:00N 51°06' E 003°45'0 0.0
2017-Oct-27 23:30N 51°06' E 003°45'0 0.0
2017-Oct-27 22:59N 51°06' E 003°45'0 0.0
2017-Oct-27 22:29N 51°06' E 003°45'0 0.0
2017-Oct-27 21:59N 51°06' E 003°45'0 0.0
2017-Oct-27 21:29N 51°06' E 003°45'0 0.0
2017-Oct-27 20:59N 51°06' E 003°45'0 0.0
2017-Oct-27 20:28N 51°06' E 003°45'0 0.0
2017-Oct-27 19:58N 51°06' E 003°45'0 0.0
2017-Oct-27 19:28N 51°06' E 003°45'0 0.0
2017-Oct-27 18:55N 51°06' E 003°45'0 0.0
2017-Oct-27 18:31N 51°06' E 003°45'0 0.0
2017-Oct-27 18:00N 51°06' E 003°45'0 0.0
2017-Oct-27 17:30N 51°06' E 003°45'0 0.0
2017-Oct-27 17:00N 51°06' E 003°45'0 0.0
2017-Oct-27 16:27N 51°06' E 003°45'0 0.0
2017-Oct-27 15:59N 51°06' E 003°45'0 0.0
2017-Oct-27 15:29N 51°06' E 003°45'0 0.0
2017-Oct-27 14:56N 51°06' E 003°45'0 0.0
2017-Oct-27 14:29N 51°06' E 003°45'0 0.0
2017-Oct-27 13:59N 51°06' E 003°45'0 0.0
2017-Oct-27 13:25N 51°06' E 003°45'0 0.0
2017-Oct-27 12:58N 51°06' E 003°45'0 0.0
2017-Oct-27 12:28N 51°06' E 003°45'0 0.0
2017-Oct-27 11:58N 51°06' E 003°45'0 0.0
2017-Oct-27 11:31N 51°06' E 003°45'0 0.0
2017-Oct-27 11:00N 51°06' E 003°45'0 0.0
2017-Oct-27 10:30N 51°06' E 003°45'0 0.0
2017-Oct-27 10:00N 51°06' E 003°45'0 0.0
2017-Oct-27 09:30N 51°06' E 003°45'0 0.0
2017-Oct-27 08:59N 51°06' E 003°45'0 0.0
2017-Oct-27 08:29N 51°06' E 003°45'0 0.0
2017-Oct-27 07:59N 51°06' E 003°45'0 0.0
2017-Oct-27 07:29N 51°06' E 003°45'0 0.0
2017-Oct-27 06:59N 51°06' E 003°45'0 0.0
2017-Oct-27 06:28N 51°06' E 003°45'0 0.0
2017-Oct-27 05:58N 51°06' E 003°45'0 0.0
2017-Oct-27 05:28N 51°06' E 003°45'0 0.0
2017-Oct-27 04:58N 51°06' E 003°45'0 0.0
2017-Oct-27 04:31N 51°06' E 003°45'0 0.0
2017-Oct-27 04:00N 51°06' E 003°45'0 0.0
2017-Oct-27 03:30N 51°06' E 003°45'0 0.1
2017-Oct-27 03:00N 51°06' E 003°45'3 5.5
2017-Oct-27 02:30N 51°09' E 003°47'5 9.2
2017-Oct-27 02:00N 51°13' E 003°48'4 8.6
2017-Oct-27 01:30N 51°17' E 003°50'2 5.0
2017-Oct-27 01:00N 51°20' E 003°49'0 0.0
2017-Oct-27 00:30N 51°20' E 003°49'1 3.0
2017-Oct-27 00:00N 51°21' E 003°48'611.1
2017-Oct-26 23:30N 51°25' E 003°41'4 8.6
2017-Oct-26 23:00N 51°26' E 003°34'510.5
2017-Oct-26 22:30N 51°25' E 003°26'  
Track history (hours):
 
Tides and Currents Weather Stations Pressure Air Temp Water Temp Dewpoint Dewpoint Depression Visibility Wind Speed Wind Dir Waves Ship Positions

Missouriborg

Last reported at 2017-Nov-05 22:04 UTC. Time now 2017-Nov-19 05:02 UTC.
Position N 36°00' W 005°16'.
Warning: this ship's position is 13 days out of date.

Length 135 m; draft 7.3 m.

Type: Cargo ship. MMSI: 245170000.

Date/timePositionNaut miles runAvg speedWind from/ knotsBaromVisibWave heightAir tempDewpointWater temp
2017-Nov-05 22:04N 36°00' W 005°16'214.4
2017-Nov-05 21:57N 35°60' W 005°19'25310.1
2017-Nov-04 20:47N 38°05' W 009°55'311.7
2017-Nov-04 20:30N 38°08' W 009°55'611.8
2017-Nov-04 20:00N 38°14' W 009°57'612.1
2017-Nov-04 19:30N 38°19' W 009°58'612.4
2017-Nov-04 19:00N 38°25' W 009°60'612.4
2017-Nov-04 18:30N 38°31' W 010°02'612.0
2017-Nov-04 18:00N 38°37' W 010°04'611.8
2017-Nov-04 17:30N 38°43' W 010°06'611.5
2017-Nov-04 17:00N 38°49' W 010°06'611.4
2017-Nov-04 16:30N 38°55' W 010°06'611.7
2017-Nov-04 16:00N 39°00' W 010°05'611.5
2017-Nov-04 15:30N 39°06' W 010°05'611.1
2017-Nov-04 15:00N 39°12' W 010°05'611.7
2017-Nov-04 14:30N 39°18' W 010°06'611.8
2017-Nov-04 14:00N 39°23' W 010°06'48411.1
2017-Nov-02 18:35N 47°10' W 007°09'511.9
2017-Nov-02 18:11N 47°14' W 007°06'311.4
2017-Nov-02 17:57N 47°17' W 007°05'511.7
2017-Nov-02 17:30N 47°22' W 007°01'611.3
2017-Nov-02 16:56N 47°27' W 006°56'511.1
2017-Nov-02 16:30N 47°31' W 006°52'611.8
2017-Nov-02 16:00N 47°36' W 006°48'711.8
2017-Nov-02 15:27N 47°42' W 006°43'511.2
2017-Nov-02 15:00N 47°46' W 006°40'611.4
2017-Nov-02 14:30N 47°51' W 006°36'610.9
2017-Nov-02 13:56N 47°57' W 006°32'511.0
2017-Nov-02 13:29N 48°01' W 006°28'510.4
2017-Nov-02 12:58N 48°06' W 006°25'510.5
2017-Nov-02 12:29N 48°11' W 006°22'610.6
2017-Nov-02 11:56N 48°16' W 006°18'510.8
2017-Nov-02 11:30N 48°20' W 006°15'611.0
2017-Nov-02 10:59N 48°25' W 006°11'711.3
2017-Nov-02 10:20N 48°32' W 006°06'611.6
2017-Nov-02 09:50N 48°37' W 006°02'511.9
2017-Nov-02 09:27N 48°41' W 005°58'712.4
2017-Nov-02 08:55N 48°46' W 005°53'512.7
2017-Nov-02 08:30N 48°51' W 005°49'612.6
2017-Nov-02 08:00N 48°55' W 005°41'713.1
2017-Nov-02 07:27N 48°59' W 005°32'5111.4
2017-Nov-02 02:58N 49°25' W 004°24'810.2
2017-Nov-02 02:11N 49°29' W 004°14'5711.8
2017-Nov-01 21:22N 49°58' W 002°57'1111.6
2017-Nov-01 20:26N 50°01' W 002°42'20411.1
2017-Nov-01 02:00N 51°21' E 002°15'510.9
2017-Nov-01 01:31N 51°22' E 002°23'611.0
2017-Nov-01 01:00N 51°23' E 002°32'510.8
2017-Nov-01 00:30N 51°23' E 002°41'5 9.7
2017-Nov-01 00:01N 51°22' E 002°48'510.1
2017-Oct-31 23:30N 51°23' E 002°56'5 9.6
2017-Oct-31 23:00N 51°25' E 003°03'5 9.7
2017-Oct-31 22:30N 51°24' E 003°11'5 9.8
2017-Oct-31 22:00N 51°24' E 003°19'5 9.5
2017-Oct-31 21:30N 51°25' E 003°27'5 9.1
2017-Oct-31 21:00N 51°26' E 003°34'4 8.1
2017-Oct-31 20:30N 51°26' E 003°40'5 9.4
2017-Oct-31 20:00N 51°22' E 003°44'4 7.8
2017-Oct-31 19:30N 51°20' E 003°49'0 0.3
2017-Oct-31 19:00N 51°20' E 003°49'0 0.2
2017-Oct-31 18:31N 51°20' E 003°49'1 1.1
2017-Oct-31 18:01N 51°19' E 003°50'0 0.4
2017-Oct-31 17:30N 51°19' E 003°50'2 4.6
2017-Oct-31 17:01N 51°17' E 003°50'3 5.9
2017-Oct-31 16:30N 51°14' E 003°49'3 6.7
2017-Oct-31 16:00N 51°11' E 003°48'4 7.1
2017-Oct-31 15:30N 51°07' E 003°46'1 2.4
2017-Oct-31 14:58N 51°06' E 003°45'0 0.0
2017-Oct-31 14:30N 51°06' E 003°45'0 0.0
2017-Oct-31 13:58N 51°06' E 003°45'0 0.0
2017-Oct-31 13:28N 51°06' E 003°45'0 0.0
2017-Oct-31 12:58N 51°06' E 003°45'0 0.0
2017-Oct-31 12:30N 51°06' E 003°45'0 0.0
2017-Oct-31 12:00N 51°06' E 003°45'0 0.0
2017-Oct-31 11:30N 51°06' E 003°45'0 0.0
2017-Oct-31 11:00N 51°06' E 003°45'0 0.0
2017-Oct-31 10:30N 51°06' E 003°45'0 0.0
2017-Oct-31 09:59N 51°06' E 003°45'0 0.0
2017-Oct-31 09:29N 51°06' E 003°45'0 0.0
2017-Oct-31 08:59N 51°06' E 003°45'0 0.0
2017-Oct-31 08:29N 51°06' E 003°45'0 0.0
2017-Oct-31 07:55N 51°06' E 003°45'0 0.0
2017-Oct-31 07:28N 51°06' E 003°45'0 0.0
2017-Oct-31 06:58N 51°06' E 003°45'0 0.0
2017-Oct-31 06:28N 51°06' E 003°45'0 0.0
2017-Oct-31 05:58N 51°06' E 003°45'0 0.0
2017-Oct-31 05:30N 51°06' E 003°45'0 0.0
2017-Oct-31 04:57N 51°06' E 003°45'0 0.0
2017-Oct-31 04:30N 51°06' E 003°45'0 0.0
2017-Oct-31 04:00N 51°06' E 003°45'0 0.0
2017-Oct-31 03:30N 51°06' E 003°45'0 0.0
2017-Oct-31 02:59N 51°06' E 003°45'0 0.0
2017-Oct-31 02:29N 51°06' E 003°45'0 0.0
2017-Oct-31 01:59N 51°06' E 003°45'0 0.0
2017-Oct-31 01:29N 51°06' E 003°45'0 0.0
2017-Oct-31 00:52N 51°06' E 003°45'0 0.0
2017-Oct-31 00:28N 51°06' E 003°45'0 0.0
2017-Oct-30 23:58N 51°06' E 003°45'0 0.0
2017-Oct-30 23:28N 51°06' E 003°45'0 0.0
2017-Oct-30 22:55N 51°06' E 003°45'0 0.0
2017-Oct-30 22:30N 51°06' E 003°45'0 0.0
2017-Oct-30 22:00N 51°06' E 003°45'0 0.0
2017-Oct-30 21:30N 51°06' E 003°45'0 0.0
2017-Oct-30 21:00N 51°06' E 003°45'0 0.0
2017-Oct-30 20:29N 51°06' E 003°45'0 0.0
2017-Oct-30 19:56N 51°06' E 003°45'0 0.0
2017-Oct-30 19:29N 51°06' E 003°45'0 0.0
2017-Oct-30 18:59N 51°06' E 003°45'0 0.0
2017-Oct-30 18:29N 51°06' E 003°45'0 0.0
2017-Oct-30 17:55N 51°06' E 003°45'0 0.0
2017-Oct-30 17:28N 51°06' E 003°45'0 0.0
2017-Oct-30 16:58N 51°06' E 003°45'0 0.0
2017-Oct-30 16:28N 51°06' E 003°45'0 0.0
2017-Oct-30 15:57N 51°06' E 003°45'0 0.0
2017-Oct-30 15:30N 51°06' E 003°45'0 0.0
2017-Oct-30 15:00N 51°06' E 003°45'0 0.0
2017-Oct-30 14:00N 51°06' E 003°45'0 0.0
2017-Oct-30 13:30N 51°06' E 003°45'0 0.0
2017-Oct-30 12:59N 51°06' E 003°45'0 0.0
2017-Oct-30 12:29N 51°06' E 003°45'0 0.0
2017-Oct-30 11:59N 51°06' E 003°45'0 0.0
2017-Oct-30 11:29N 51°06' E 003°45'0 0.0
2017-Oct-30 10:58N 51°06' E 003°45'0 0.0
2017-Oct-30 10:28N 51°06' E 003°45'0 0.0
2017-Oct-30 09:58N 51°06' E 003°45'0 0.0
2017-Oct-30 09:28N 51°06' E 003°45'0 0.0
2017-Oct-30 09:00N 51°06' E 003°45'0 0.0
2017-Oct-30 08:30N 51°06' E 003°45'0 0.0
2017-Oct-30 07:54N 51°06' E 003°45'0 0.0
2017-Oct-30 07:30N 51°06' E 003°45'0 0.0
2017-Oct-30 07:00N 51°06' E 003°45'0 0.0
2017-Oct-30 06:30N 51°06' E 003°45'0 0.0
2017-Oct-30 05:59N 51°06' E 003°45'0 0.0
2017-Oct-30 05:29N 51°06' E 003°45'0 0.0
2017-Oct-30 04:59N 51°06' E 003°45'0 0.0
2017-Oct-30 04:29N 51°06' E 003°45'0 0.0
2017-Oct-30 03:58N 51°06' E 003°45'0 0.0
2017-Oct-30 03:28N 51°06' E 003°45'0 0.0
2017-Oct-30 02:58N 51°06' E 003°45'0 0.0
2017-Oct-30 02:28N 51°06' E 003°45'0 0.0
2017-Oct-30 02:00N 51°06' E 003°45'0 0.0
2017-Oct-30 01:30N 51°06' E 003°45'0 0.0
2017-Oct-30 01:00N 51°06' E 003°45'0 0.0
2017-Oct-30 00:30N 51°06' E 003°45'0 0.0
2017-Oct-30 00:00N 51°06' E 003°45'0 0.0
2017-Oct-29 23:29N 51°06' E 003°45'0 0.0
2017-Oct-29 22:59N 51°06' E 003°45'0 0.0
2017-Oct-29 22:29N 51°06' E 003°45'0 0.0
2017-Oct-29 21:59N 51°06' E 003°45'0 0.0
2017-Oct-29 21:29N 51°06' E 003°45'0 0.0
2017-Oct-29 20:58N 51°06' E 003°45'0 0.0
2017-Oct-29 20:28N 51°06' E 003°45'0 0.0
2017-Oct-29 19:58N 51°06' E 003°45'0 0.0
2017-Oct-29 19:28N 51°06' E 003°45'0 0.0
2017-Oct-29 19:01N 51°06' E 003°45'0 0.0
2017-Oct-29 18:30N 51°06' E 003°45'0 0.0
2017-Oct-29 18:00N 51°06' E 003°45'0 0.0
2017-Oct-29 17:30N 51°06' E 003°45'0 0.0
2017-Oct-29 17:00N 51°06' E 003°45'0 0.0
2017-Oct-29 16:29N 51°06' E 003°45'0 0.0
2017-Oct-29 15:59N 51°06' E 003°45'0 0.0
2017-Oct-29 15:29N 51°06' E 003°45'0 0.0
2017-Oct-29 14:59N 51°06' E 003°45'0 0.0
2017-Oct-29 14:29N 51°06' E 003°45'0 0.0
2017-Oct-29 13:58N 51°06' E 003°45'0 0.0
2017-Oct-29 13:28N 51°06' E 003°45'0 0.0
2017-Oct-29 12:58N 51°06' E 003°45'0 0.0
2017-Oct-29 12:28N 51°06' E 003°45'0 0.0
2017-Oct-29 12:00N 51°06' E 003°45'0 0.0
2017-Oct-29 11:30N 51°06' E 003°45'0 0.0
2017-Oct-29 10:57N 51°06' E 003°45'0 0.0
2017-Oct-29 10:30N 51°06' E 003°45'0 0.0
2017-Oct-29 10:00N 51°06' E 003°45'0 0.0
2017-Oct-29 09:29N 51°06' E 003°45'0 0.0
2017-Oct-29 08:59N 51°06' E 003°45'0 0.0
2017-Oct-29 08:29N 51°06' E 003°45'0 0.0
2017-Oct-29 07:59N 51°06' E 003°45'0 0.0
2017-Oct-29 07:29N 51°06' E 003°45'0 0.0
2017-Oct-29 06:58N 51°06' E 003°45'0 0.0
2017-Oct-29 06:28N 51°06' E 003°45'0 0.0
2017-Oct-29 05:58N 51°06' E 003°45'0 0.0
2017-Oct-29 05:28N 51°06' E 003°45'0 0.0
2017-Oct-29 05:00N 51°06' E 003°45'0 0.0
2017-Oct-29 04:30N 51°06' E 003°45'0 0.0
2017-Oct-29 04:00N 51°06' E 003°45'0 0.0
2017-Oct-28 18:59N 51°06' E 003°45'0 0.0
2017-Oct-28 18:29N 51°06' E 003°45'0 0.0
2017-Oct-28 17:59N 51°06' E 003°45'0 0.0
2017-Oct-28 17:29N 51°06' E 003°45'0 0.0
2017-Oct-28 16:55N 51°06' E 003°45'0 0.0
2017-Oct-28 16:28N 51°06' E 003°45'0 0.0
2017-Oct-28 15:52N 51°06' E 003°45'0 0.0
2017-Oct-28 15:28N 51°06' E 003°45'0 0.0
2017-Oct-28 15:00N 51°06' E 003°45'0 0.0
2017-Oct-28 14:30N 51°06' E 003°45'0 0.0
2017-Oct-28 14:00N 51°06' E 003°45'0 0.0
2017-Oct-28 13:27N 51°06' E 003°45'0 0.0
2017-Oct-28 13:00N 51°06' E 003°45'0 0.0
2017-Oct-28 12:29N 51°06' E 003°45'0 0.0
2017-Oct-28 11:59N 51°06' E 003°45'0 0.0
2017-Oct-28 11:29N 51°06' E 003°45'0 0.0
2017-Oct-28 10:59N 51°06' E 003°45'0 0.0
2017-Oct-28 10:29N 51°06' E 003°45'0 0.0
2017-Oct-28 09:58N 51°06' E 003°45'0 0.0
2017-Oct-28 09:28N 51°06' E 003°45'0 0.0
2017-Oct-28 08:59N 51°06' E 003°45'0 0.0
2017-Oct-28 08:28N 51°06' E 003°45'0 0.0
2017-Oct-28 08:00N 51°06' E 003°45'0 0.0
2017-Oct-28 07:30N 51°06' E 003°45'0 0.0
2017-Oct-28 07:00N 51°06' E 003°45'0 0.0
2017-Oct-28 06:30N 51°06' E 003°45'0 0.0
2017-Oct-28 05:59N 51°06' E 003°45'0 0.0
2017-Oct-28 05:29N 51°06' E 003°45'0 0.0
2017-Oct-28 04:59N 51°06' E 003°45'0 0.0
2017-Oct-28 04:29N 51°06' E 003°45'0 0.0
2017-Oct-28 03:59N 51°06' E 003°45'0 0.0
2017-Oct-28 03:28N 51°06' E 003°45'0 0.0
2017-Oct-28 02:58N 51°06' E 003°45'0 0.0
2017-Oct-28 02:28N 51°06' E 003°45'0 0.0
2017-Oct-28 01:58N 51°06' E 003°45'0 0.0
2017-Oct-28 01:28N 51°06' E 003°45'0 0.0
2017-Oct-28 00:57N 51°06' E 003°45'0 0.0
2017-Oct-28 00:30N 51°06' E 003°45'0 0.0
2017-Oct-28 00:00N 51°06' E 003°45'0 0.0
2017-Oct-27 23:30N 51°06' E 003°45'0 0.0
2017-Oct-27 22:59N 51°06' E 003°45'0 0.0
2017-Oct-27 22:29N 51°06' E 003°45'0 0.0
2017-Oct-27 21:59N 51°06' E 003°45'0 0.0
2017-Oct-27 21:29N 51°06' E 003°45'0 0.0
2017-Oct-27 20:59N 51°06' E 003°45'0 0.0
2017-Oct-27 20:28N 51°06' E 003°45'0 0.0
2017-Oct-27 19:58N 51°06' E 003°45'0 0.0
2017-Oct-27 19:28N 51°06' E 003°45'0 0.0
2017-Oct-27 18:55N 51°06' E 003°45'0 0.0
2017-Oct-27 18:31N 51°06' E 003°45'0 0.0
2017-Oct-27 18:00N 51°06' E 003°45'0 0.0
2017-Oct-27 17:30N 51°06' E 003°45'0 0.0
2017-Oct-27 17:00N 51°06' E 003°45'0 0.0
2017-Oct-27 16:27N 51°06' E 003°45'0 0.0
2017-Oct-27 15:59N 51°06' E 003°45'0 0.0
2017-Oct-27 15:29N 51°06' E 003°45'0 0.0
2017-Oct-27 14:56N 51°06' E 003°45'0 0.0
2017-Oct-27 14:29N 51°06' E 003°45'0 0.0
2017-Oct-27 13:59N 51°06' E 003°45'0 0.0
2017-Oct-27 13:25N 51°06' E 003°45'0 0.0
2017-Oct-27 12:58N 51°06' E 003°45'0 0.0
2017-Oct-27 12:28N 51°06' E 003°45'0 0.0
2017-Oct-27 11:58N 51°06' E 003°45'0 0.0
2017-Oct-27 11:31N 51°06' E 003°45'0 0.0
2017-Oct-27 11:00N 51°06' E 003°45'0 0.0
2017-Oct-27 10:30N 51°06' E 003°45'0 0.0
2017-Oct-27 10:00N 51°06' E 003°45'0 0.0
2017-Oct-27 09:30N 51°06' E 003°45'0 0.0
2017-Oct-27 08:59N 51°06' E 003°45'0 0.0
2017-Oct-27 08:29N 51°06' E 003°45'0 0.0
2017-Oct-27 07:59N 51°06' E 003°45'0 0.0
2017-Oct-27 07:29N 51°06' E 003°45'0 0.0
2017-Oct-27 06:59N 51°06' E 003°45'0 0.0
2017-Oct-27 06:28N 51°06' E 003°45'0 0.0
2017-Oct-27 05:58N 51°06' E 003°45'0 0.0
2017-Oct-27 05:28N 51°06' E 003°45'0 0.0
2017-Oct-27 04:58N 51°06' E 003°45'0 0.0
2017-Oct-27 04:31N 51°06' E 003°45'0 0.0
2017-Oct-27 04:00N 51°06' E 003°45'0 0.0
2017-Oct-27 03:30N 51°06' E 003°45'0 0.1
2017-Oct-27 03:00N 51°06' E 003°45'3 5.5
2017-Oct-27 02:30N 51°09' E 003°47'5 9.2
2017-Oct-27 02:00N 51°13' E 003°48'4 8.6
2017-Oct-27 01:30N 51°17' E 003°50'2 5.0
2017-Oct-27 01:00N 51°20' E 003°49'0 0.0
2017-Oct-27 00:30N 51°20' E 003°49'1 3.0
2017-Oct-27 00:00N 51°21' E 003°48'611.1
2017-Oct-26 23:30N 51°25' E 003°41'4 8.6
2017-Oct-26 23:00N 51°26' E 003°34'510.5
2017-Oct-26 22:30N 51°25' E 003°26'  

Dump ship's entire track history